Bookmark and Share
Track history (hours):
 

Stephen R Warden

More information available from US FCC via Universal Licensing System and Coast Guard Vessel Documentation Center.

Last reported at 2014-Apr-16 10:11 UTC. Time now 2014-Apr-17 01:05 UTC.
Position N 30°07' W 090°57'.

Length 37 m; draft 3 m.

Type: Towing. MMSI: 367057460.

NotesDate/timePositionNaut miles runAvg speedWind from/ knotsBaromVisibWave heightAir tempDewpointWater temp
2014-Apr-16 10:11N 30°07' W 090°57'2 1.3
2014-Apr-16 08:30N 30°06' W 090°55'3 2.8
2014-Apr-16 07:20N 30°04' W 090°52'5 2.9
2014-Apr-16 05:30N 29°59' W 090°49'3 2.9
2014-Apr-16 04:33N 30°01' W 090°47'0 0.2
2014-Apr-16 03:33N 30°01' W 090°46'0 0.0
2014-Apr-16 02:33N 30°01' W 090°46'1 1.1
2014-Apr-16 01:33N 30°01' W 090°45'3 2.6
2014-Apr-16 00:34N 30°01' W 090°42'2 1.9
2014-Apr-15 23:33N 30°03' W 090°41'3 2.7
2014-Apr-15 22:33N 30°02' W 090°37'3 2.8
2014-Apr-15 21:33N 30°03' W 090°34'1 0.8
2014-Apr-15 20:33N 30°03' W 090°34'1 0.7
2014-Apr-15 19:33N 30°03' W 090°34'1 0.8
2014-Apr-15 18:33N 30°03' W 090°34'0 0.0
2014-Apr-15 17:33N 30°03' W 090°34'0 0.1
2014-Apr-15 16:34N 30°03' W 090°33'0 0.0
2014-Apr-15 15:33N 30°03' W 090°33'0 0.0
2014-Apr-15 14:33N 30°03' W 090°33'0 0.0
2014-Apr-15 12:33N 30°03' W 090°33'2 1.9
2014-Apr-15 11:34N 30°03' W 090°31'2 2.1
2014-Apr-15 10:34N 30°03' W 090°29'2 1.9
2014-Apr-15 09:34N 30°01' W 090°28'1 1.2
2014-Apr-15 08:34N 29°60' W 090°27'2 2.4
2014-Apr-15 07:34N 29°59' W 090°25'2 2.4
2014-Apr-15 06:34N 29°57' W 090°24'3 2.6
2014-Apr-15 05:32N 29°56' W 090°21'1 0.0
2014-Apr-14 05:34N 29°56' W 090°20'21 2.7
2014-Apr-13 21:33N 30°01' W 090°44'0 0.0
2014-Apr-13 20:34N 30°01' W 090°44'0 0.0
2014-Apr-13 19:33N 30°01' W 090°44'0 0.0
2014-Apr-13 18:33N 30°01' W 090°44'0 0.0
2014-Apr-13 17:33N 30°01' W 090°44'0 0.0
2014-Apr-13 16:33N 30°01' W 090°44'0 0.0
2014-Apr-13 15:33N 30°01' W 090°44'0 0.0
2014-Apr-13 12:34N 30°01' W 090°44'0 0.0
2014-Apr-13 11:33N 30°01' W 090°44'0 0.0
2014-Apr-13 10:30N 30°01' W 090°44'0 0.0
2014-Apr-13 09:33N 30°01' W 090°44'0 0.0
2014-Apr-13 08:34N 30°01' W 090°44'0 0.0
2014-Apr-13 07:33N 30°01' W 090°44'0 0.1
2014-Apr-13 06:33N 30°01' W 090°44'0 0.0
2014-Apr-13 05:33N 30°01' W 090°44'0 0.4
2014-Apr-13 04:34N 30°01' W 090°45'1 0.6
2014-Apr-13 03:33N 30°01' W 090°46'6 3.1
2014-Apr-13 01:33N 30°04' W 090°52'5 1.5
2014-Apr-12 22:29N 29°60' W 090°50'3 2.9
2014-Apr-12 21:30N 30°01' W 090°47'1 0.7
2014-Apr-12 20:34N 30°01' W 090°46'0 0.0
2014-Apr-12 19:34N 30°01' W 090°46'0 0.0
2014-Apr-12 18:33N 30°01' W 090°46'0 0.0
2014-Apr-12 17:33N 30°01' W 090°46'1 0.7
2014-Apr-12 16:33N 30°01' W 090°45'9 0.4
2014-Apr-11 16:33N 30°03' W 090°35'3 3.4
2014-Apr-11 15:33N 30°03' W 090°31'9 2.7
2014-Apr-11 12:25N 29°57' W 090°24'3 3.4
2014-Apr-11 11:27N 29°56' W 090°20'4 3.5
2014-Apr-11 10:25N 29°58' W 090°17'2 0.6
2014-Apr-11 06:29N 29°58' W 090°14'7 7.1
2014-Apr-11 05:33N 29°56' W 090°21'6 6.3
2014-Apr-11 04:33N 29°60' W 090°27'7 6.7
2014-Apr-11 03:33N 30°03' W 090°34'7 6.8
2014-Apr-11 02:33N 30°02' W 090°42'4 4.0
2014-Apr-11 01:33N 30°01' W 090°46'0 0.0
2014-Apr-11 00:34N 30°01' W 090°46'0 0.0
2014-Apr-10 12:33N 30°01' W 090°46'0 0.0
2014-Apr-10 11:33N 30°01' W 090°46'0 0.0
2014-Apr-10 10:34N 30°01' W 090°46'0 0.0
2014-Apr-10 09:33N 30°01' W 090°46'0 0.0
2014-Apr-10 08:33N 30°01' W 090°46'0 0.0
2014-Apr-10 07:33N 30°01' W 090°46'0 0.0
2014-Apr-10 06:33N 30°01' W 090°46'0 0.0
2014-Apr-10 05:33N 30°01' W 090°46'0 0.0
2014-Apr-10 04:34N 30°01' W 090°46'2 1.5
2014-Apr-10 03:33N 30°01' W 090°44'0 0.4
2014-Apr-10 02:34N 30°01' W 090°44'5 4.6
2014-Apr-10 01:33N 30°03' W 090°39'5 4.6
2014-Apr-10 00:34N 30°03' W 090°34'4 4.4
2014-Apr-09 23:33N 30°02' W 090°29'3 2.7
2014-Apr-09 22:33N 29°60' W 090°27'8 0.7
2014-Apr-09 11:17N 29°56' W 090°20'12 0.7
2014-Apr-08 18:10N 30°03' W 090°31'12 2.0
2014-Apr-08 12:08N 30°01' W 090°44'0 0.0
2014-Apr-08 11:34N 30°01' W 090°44'0 0.0
2014-Apr-08 10:33N 30°01' W 090°44'0 0.0
2014-Apr-08 09:33N 30°01' W 090°44'0 0.0
2014-Apr-08 08:33N 30°01' W 090°44'0 0.3
2014-Apr-08 07:33N 30°01' W 090°44'2 1.6
2014-Apr-08 06:34N 30°01' W 090°42'3 3.1
2014-Apr-08 05:34N 30°03' W 090°39'3 2.8
2014-Apr-08 04:34N 30°03' W 090°36'3 3.3
2014-Apr-08 03:34N 30°03' W 090°32'3 2.9
2014-Apr-08 02:34N 30°03' W 090°29'2 1.9
2014-Apr-08 01:33N 30°01' W 090°28'3 2.9
2014-Apr-08 00:33N 29°60' W 090°25'2 2.1
2014-Apr-07 23:33N 29°58' W 090°24'5 0.2
2014-Apr-07 01:33N 29°57' W 090°18'6 5.7
2014-Apr-07 00:33N 29°59' W 090°24'7 6.6
2014-Apr-06 23:31N 30°03' W 090°31'13 6.5
2014-Apr-06 21:32N 30°01' W 090°45'0 0.0
2014-Apr-06 20:33N 30°01' W 090°45'0 0.0
2014-Apr-06 17:31N 30°01' W 090°45'1 0.2
2014-Apr-06 13:33N 30°01' W 090°45'0 0.0
2014-Apr-06 12:33N 30°01' W 090°45'0 0.0
2014-Apr-06 11:33N 30°01' W 090°45'0 0.0
2014-Apr-06 10:34N 30°01' W 090°45'  

Dump ship's entire track history

sailing weather and tide predictions

Stephen R Warden — WDC6523 — position and weather